sensor_id;sensor_type;location;lat;lon;timestamp;pressure;altitude;pressure_sealevel;temperature;humidity
76586;BME280;65251;51.022;13.736;2023-04-06T00:00:21;99802.47;;;1.99;67.22
76586;BME280;65251;51.022;13.736;2023-04-06T00:00:53;99810.34;;;1.99;67.15
76586;BME280;65251;51.022;13.736;2023-04-06T00:01:23;99807.03;;;1.97;67.35
76586;BME280;65251;51.022;13.736;2023-04-06T00:01:55;99799.16;;;1.97;67.33
76586;BME280;65251;51.022;13.736;2023-04-06T00:02:26;99811.47;;;1.96;67.32
76586;BME280;65251;51.022;13.736;2023-04-06T00:02:57;99802.75;;;1.96;67.59
76586;BME280;65251;51.022;13.736;2023-04-06T00:03:28;99805.50;;;1.94;67.81
76586;BME280;65251;51.022;13.736;2023-04-06T00:03:59;99808.00;;;1.96;67.70
76586;BME280;65251;51.022;13.736;2023-04-06T00:04:30;99803.84;;;1.93;68.10
76586;BME280;65251;51.022;13.736;2023-04-06T00:05:01;99801.22;;;1.93;67.67
76586;BME280;65251;51.022;13.736;2023-04-06T00:05:33;99802.19;;;1.92;67.90
76586;BME280;65251;51.022;13.736;2023-04-06T00:06:05;99801.47;;;1.90;67.90
76586;BME280;65251;51.022;13.736;2023-04-06T00:06:36;99810.19;;;1.91;68.04
76586;BME280;65251;51.022;13.736;2023-04-06T00:07:07;99810.47;;;1.88;68.18
76586;BME280;65251;51.022;13.736;2023-04-06T00:07:39;99809.50;;;1.89;68.38
76586;BME280;65251;51.022;13.736;2023-04-06T00:08:10;99809.50;;;1.89;68.35
76586;BME280;65251;51.022;13.736;2023-04-06T00:08:41;99799.97;;;1.88;68.42
76586;BME280;65251;51.022;13.736;2023-04-06T00:09:13;99808.66;;;1.88;68.49
76586;BME280;65251;51.022;13.736;2023-04-06T00:09:44;99814.06;;;1.87;68.53
76586;BME280;65251;51.022;13.736;2023-04-06T00:10:15;99807.00;;;1.87;68.85
76586;BME280;65251;51.022;13.736;2023-04-06T00:10:46;99803.56;;;1.87;68.78
76586;BME280;65251;51.022;13.736;2023-04-06T00:11:18;99803.56;;;1.87;68.85
76586;BME280;65251;51.022;13.736;2023-04-06T00:11:49;99808.94;;;1.85;68.86
76586;BME280;65251;51.022;13.736;2023-04-06T00:12:19;99813.50;;;1.83;68.96
76586;BME280;65251;51.022;13.736;2023-04-06T00:12:50;99814.47;;;1.82;68.99
76586;BME280;65251;51.022;13.736;2023-04-06T00:13:22;99807.53;;;1.81;68.99
76586;BME280;65251;51.022;13.736;2023-04-06T00:13:53;99807.00;;;1.78;69.03
76586;BME280;65251;51.022;13.736;2023-04-06T00:14:24;99812.13;;;1.79;69.12
76586;BME280;65251;51.022;13.736;2023-04-06T00:14:56;99807.84;;;1.78;69.16
76586;BME280;65251;51.022;13.736;2023-04-06T00:15:27;99801.19;;;1.74;69.20
76586;BME280;65251;51.022;13.736;2023-04-06T00:15:58;99807.97;;;1.77;69.20
76586;BME280;65251;51.022;13.736;2023-04-06T00:16:29;99815.16;;;1.75;69.07
76586;BME280;65251;51.022;13.736;2023-04-06T00:17:00;99810.72;;;1.75;69.17
76586;BME280;65251;51.022;13.736;2023-04-06T00:17:31;99809.78;;;1.76;69.04
76586;BME280;65251;51.022;13.736;2023-04-06T00:18:03;99817.78;;;1.75;69.26
76586;BME280;65251;51.022;13.736;2023-04-06T00:18:34;99813.34;;;1.75;69.06
76586;BME280;65251;51.022;13.736;2023-04-06T00:19:05;99810.47;;;1.78;69.22
76586;BME280;65251;51.022;13.736;2023-04-06T00:19:36;99806.72;;;1.81;69.14
76586;BME280;65251;51.022;13.736;2023-04-06T00:20:08;99807.41;;;1.83;68.94
76586;BME280;65251;51.022;13.736;2023-04-06T00:20:42;99814.47;;;1.82;68.87
76586;BME280;65251;51.022;13.736;2023-04-06T00:21:13;99807.00;;;1.78;68.87
76586;BME280;65251;51.022;13.736;2023-04-06T00:21:44;99815.72;;;1.78;68.84
76586;BME280;65251;51.022;13.736;2023-04-06T00:22:16;99807.53;;;1.81;68.87
76586;BME280;65251;51.022;13.736;2023-04-06T00:22:47;99812.13;;;1.79;68.82
76586;BME280;65251;51.022;13.736;2023-04-06T00:23:18;99810.34;;;1.80;68.72
76586;BME280;65251;51.022;13.736;2023-04-06T00:23:50;99807.00;;;1.78;68.79
76586;BME280;65251;51.022;13.736;2023-04-06T00:24:21;99808.81;;;1.77;68.85
76586;BME280;65251;51.022;13.736;2023-04-06T00:24:51;99807.72;;;1.80;68.84
76586;BME280;65251;51.022;13.736;2023-04-06T00:25:22;99809.91;;;1.75;69.03
76586;BME280;65251;51.022;13.736;2023-04-06T00:25:54;99809.63;;;1.78;68.80
76586;BME280;65251;51.022;13.736;2023-04-06T00:26:26;99804.38;;;1.78;68.92
76586;BME280;65251;51.022;13.736;2023-04-06T00:26:56;99809.63;;;1.78;68.86
76586;BME280;65251;51.022;13.736;2023-04-06T00:27:28;99804.38;;;1.78;68.44
76586;BME280;65251;51.022;13.736;2023-04-06T00:27:59;99811.13;;;1.80;68.60
76586;BME280;65251;51.022;13.736;2023-04-06T00:28:30;99805.22;;;1.78;68.49
76586;BME280;65251;51.022;13.736;2023-04-06T00:29:01;99803.69;;;1.76;68.48
76586;BME280;65251;51.022;13.736;2023-04-06T00:29:32;99809.91;;;1.75;68.70
76586;BME280;65251;51.022;13.736;2023-04-06T00:30:04;99810.88;;;1.73;68.53
76586;BME280;65251;51.022;13.736;2023-04-06T00:30:35;99810.59;;;1.77;68.53
76586;BME280;65251;51.022;13.736;2023-04-06T00:31:07;99802.84;;;1.75;68.58
76586;BME280;65251;51.022;13.736;2023-04-06T00:31:37;99804.09;;;1.71;68.61
76586;BME280;65251;51.022;13.736;2023-04-06T00:32:09;99805.19;;;1.68;68.59
76586;BME280;65251;51.022;13.736;2023-04-06T00:32:39;99800.50;;;1.72;68.57
76586;BME280;65251;51.022;13.736;2023-04-06T00:33:11;99806.56;;;1.72;68.38
76586;BME280;65251;51.022;13.736;2023-04-06T00:33:42;99817.09;;;1.72;68.32
76586;BME280;65251;51.022;13.736;2023-04-06T00:34:13;99803.13;;;1.72;68.30
76586;BME280;65251;51.022;13.736;2023-04-06T00:34:45;99803.69;;;1.76;68.06
76586;BME280;65251;51.022;13.736;2023-04-06T00:35:17;99806.44;;;1.74;67.98
76586;BME280;65251;51.022;13.736;2023-04-06T00:35:49;99812.41;;;1.76;67.92
76586;BME280;65251;51.022;13.736;2023-04-06T00:36:20;99803.81;;;1.74;67.78
76586;BME280;65251;51.022;13.736;2023-04-06T00:36:51;99807.97;;;1.77;68.02
76586;BME280;65251;51.022;13.736;2023-04-06T00:37:23;99809.06;;;1.74;67.84
76586;BME280;65251;51.022;13.736;2023-04-06T00:37:54;99801.19;;;1.74;67.65
76586;BME280;65251;51.022;13.736;2023-04-06T00:38:25;99798.56;;;1.74;67.35
76586;BME280;65251;51.022;13.736;2023-04-06T00:38:57;99806.31;;;1.76;67.46
76586;BME280;65251;51.022;13.736;2023-04-06T00:39:27;99803.94;;;1.72;67.51
76586;BME280;65251;51.022;13.736;2023-04-06T00:39:58;99807.53;;;1.71;67.58
76586;BME280;65251;51.022;13.736;2023-04-06T00:40:29;99803.94;;;1.72;67.91
76586;BME280;65251;51.022;13.736;2023-04-06T00:41:03;99801.31;;;1.72;67.65
76586;BME280;65251;51.022;13.736;2023-04-06T00:41:34;99798.81;;;1.71;67.76
76586;BME280;65251;51.022;13.736;2023-04-06T00:42:11;99800.34;;;1.73;67.73
76586;BME280;65251;51.022;13.736;2023-04-06T00:42:43;99804.91;;;1.71;67.63
76586;BME280;65251;51.022;13.736;2023-04-06T00:43:14;99808.50;;;1.70;67.47
76586;BME280;65251;51.022;13.736;2023-04-06T00:43:45;99807.53;;;1.71;67.49
76586;BME280;65251;51.022;13.736;2023-04-06T00:44:16;99802.28;;;1.71;67.60
76586;BME280;65251;51.022;13.736;2023-04-06T00:44:48;99802.28;;;1.71;67.56
76586;BME280;65251;51.022;13.736;2023-04-06T00:45:19;99803.13;;;1.72;67.57
76586;BME280;65251;51.022;13.736;2023-04-06T00:45:51;99794.53;;;1.70;67.56
76586;BME280;65251;51.022;13.736;2023-04-06T00:46:22;99804.91;;;1.71;67.47
76586;BME280;65251;51.022;13.736;2023-04-06T00:46:53;99796.19;;;1.71;67.40
76586;BME280;65251;51.022;13.736;2023-04-06T00:47:25;99805.63;;;1.73;67.48
76586;BME280;65251;51.022;13.736;2023-04-06T00:47:57;99800.50;;;1.72;67.39
76586;BME280;65251;51.022;13.736;2023-04-06T00:48:27;99797.03;;;1.71;67.52
76586;BME280;65251;51.022;13.736;2023-04-06T00:49:00;99801.59;;;1.69;67.65
76586;BME280;65251;51.022;13.736;2023-04-06T00:49:32;99802.41;;;1.70;67.62
76586;BME280;65251;51.022;13.736;2023-04-06T00:50:05;99800.75;;;1.69;67.45
76586;BME280;65251;51.022;13.736;2023-04-06T00:50:36;99800.63;;;1.70;67.44
76586;BME280;65251;51.022;13.736;2023-04-06T00:51:08;99803.25;;;1.70;67.42
76586;BME280;65251;51.022;13.736;2023-04-06T00:51:39;99802.56;;;1.68;67.59
76586;BME280;65251;51.022;13.736;2023-04-06T00:52:10;99797.56;;;1.65;67.68
76586;BME280;65251;51.022;13.736;2023-04-06T00:52:41;99802.69;;;1.67;67.36
76586;BME280;65251;51.022;13.736;2023-04-06T00:53:12;99798.25;;;1.67;67.21
76586;BME280;65251;51.022;13.736;2023-04-06T00:53:44;99799.09;;;1.68;67.12
76586;BME280;65251;51.022;13.736;2023-04-06T00:54:15;99803.78;;;1.64;67.32
76586;BME280;65251;51.022;13.736;2023-04-06T00:54:46;99800.19;;;1.65;67.21
76586;BME280;65251;51.022;13.736;2023-04-06T00:55:18;99798.53;;;1.64;67.39
76586;BME280;65251;51.022;13.736;2023-04-06T00:55:49;99806.41;;;1.64;67.31
76586;BME280;65251;51.022;13.736;2023-04-06T00:56:20;99797.56;;;1.65;67.20
76586;BME280;65251;51.022;13.736;2023-04-06T00:56:51;99799.22;;;1.66;67.27
76586;BME280;65251;51.022;13.736;2023-04-06T00:57:23;99801.84;;;1.66;67.14
76586;BME280;65251;51.022;13.736;2023-04-06T00:57:54;99802.81;;;1.65;67.27
76586;BME280;65251;51.022;13.736;2023-04-06T00:58:27;99800.06;;;1.67;67.20
76586;BME280;65251;51.022;13.736;2023-04-06T00:58:59;99806.97;;;1.68;67.39
76586;BME280;65251;51.022;13.736;2023-04-06T00:59:31;99805.44;;;1.65;67.30
76586;BME280;65251;51.022;13.736;2023-04-06T01:00:03;99811.53;;;1.66;67.52
76586;BME280;65251;51.022;13.736;2023-04-06T01:00:35;99803.78;;;1.64;67.46
76586;BME280;65251;51.022;13.736;2023-04-06T01:01:06;99808.06;;;1.65;67.48
76586;BME280;65251;51.022;13.736;2023-04-06T01:01:37;99801.16;;;1.64;67.50
76586;BME280;65251;51.022;13.736;2023-04-06T01:02:09;99801.41;;;1.61;67.44
76586;BME280;65251;51.022;13.736;2023-04-06T01:02:40;99802.94;;;1.64;67.48
76586;BME280;65251;51.022;13.736;2023-04-06T01:03:11;99803.66;;;1.66;67.53
76586;BME280;65251;51.022;13.736;2023-04-06T01:03:42;99797.81;;;1.62;67.69
76586;BME280;65251;51.022;13.736;2023-04-06T01:04:14;99799.50;;;1.63;67.65
76586;BME280;65251;51.022;13.736;2023-04-06T01:04:45;99799.50;;;1.63;67.64
76586;BME280;65251;51.022;13.736;2023-04-06T01:05:17;99800.19;;;1.65;67.70
76586;BME280;65251;51.022;13.736;2023-04-06T01:05:48;99804.47;;;1.66;67.58
76586;BME280;65251;51.022;13.736;2023-04-06T01:06:20;99804.47;;;1.66;67.51
76586;BME280;65251;51.022;13.736;2023-04-06T01:06:52;99801.16;;;1.64;67.70
76586;BME280;65251;51.022;13.736;2023-04-06T01:07:23;99801.16;;;1.64;67.46
76586;BME280;65251;51.022;13.736;2023-04-06T01:07:55;99807.25;;;1.65;67.78
76586;BME280;65251;51.022;13.736;2023-04-06T01:08:27;99804.47;;;1.66;67.78
76586;BME280;65251;51.022;13.736;2023-04-06T01:08:57;99802.41;;;1.70;67.44
76586;BME280;65251;51.022;13.736;2023-04-06T01:09:29;99802.56;;;1.68;67.69
76586;BME280;65251;51.022;13.736;2023-04-06T01:10:00;99802.56;;;1.68;67.60
76586;BME280;65251;51.022;13.736;2023-04-06T01:10:33;99799.94;;;1.68;67.70
76586;BME280;65251;51.022;13.736;2023-04-06T01:11:04;99797.31;;;1.68;67.61
76586;BME280;65251;51.022;13.736;2023-04-06T01:11:35;99795.50;;;1.69;67.30
76586;BME280;65251;51.022;13.736;2023-04-06T01:12:06;99798.97;;;1.69;67.35
76586;BME280;65251;51.022;13.736;2023-04-06T01:12:38;99797.16;;;1.70;67.38
76586;BME280;65251;51.022;13.736;2023-04-06T01:13:09;99793.56;;;1.71;67.33
76586;BME280;65251;51.022;13.736;2023-04-06T01:13:40;99797.31;;;1.68;67.23
76586;BME280;65251;51.022;13.736;2023-04-06T01:14:11;99799.09;;;1.68;67.42
76586;BME280;65251;51.022;13.736;2023-04-06T01:14:43;99799.94;;;1.68;67.31
76586;BME280;65251;51.022;13.736;2023-04-06T01:15:14;99797.31;;;1.68;67.36
76586;BME280;65251;51.022;13.736;2023-04-06T01:15:46;99794.81;;;1.67;67.57
76586;BME280;65251;51.022;13.736;2023-04-06T01:16:17;99794.81;;;1.67;67.56
76586;BME280;65251;51.022;13.736;2023-04-06T01:16:50;99797.31;;;1.68;67.61
76586;BME280;65251;51.022;13.736;2023-04-06T01:17:21;99795.63;;;1.67;67.47
76586;BME280;65251;51.022;13.736;2023-04-06T01:17:52;99794.81;;;1.67;67.48
76586;BME280;65251;51.022;13.736;2023-04-06T01:18:26;99793.97;;;1.66;67.30
76586;BME280;65251;51.022;13.736;2023-04-06T01:18:58;99797.44;;;1.67;67.35
76586;BME280;65251;51.022;13.736;2023-04-06T01:19:29;99796.59;;;1.66;67.37
76586;BME280;65251;51.022;13.736;2023-04-06T01:19:59;99797.44;;;1.67;67.37
76586;BME280;65251;51.022;13.736;2023-04-06T01:20:31;99799.22;;;1.66;67.17
76586;BME280;65251;51.022;13.736;2023-04-06T01:21:02;99794.94;;;1.65;67.36
76586;BME280;65251;51.022;13.736;2023-04-06T01:21:34;99791.63;;;1.63;67.27
76586;BME280;65251;51.022;13.736;2023-04-06T01:22:05;99798.66;;;1.63;67.23
76586;BME280;65251;51.022;13.736;2023-04-06T01:22:39;99800.19;;;1.65;67.18
76586;BME280;65251;51.022;13.736;2023-04-06T01:23:10;99799.63;;;1.62;67.47
76586;BME280;65251;51.022;13.736;2023-04-06T01:23:42;99797.97;;;1.61;67.62
76586;BME280;65251;51.022;13.736;2023-04-06T01:24:13;99796.16;;;1.61;67.56
76586;BME280;65251;51.022;13.736;2023-04-06T01:24:45;99801.28;;;1.63;67.38
76586;BME280;65251;51.022;13.736;2023-04-06T01:25:16;99798.66;;;1.63;67.36
76586;BME280;65251;51.022;13.736;2023-04-06T01:25:47;99791.75;;;1.62;67.57
76586;BME280;65251;51.022;13.736;2023-04-06T01:26:18;99788.59;;;1.58;67.53
76586;BME280;65251;51.022;13.736;2023-04-06T01:26:49;99791.34;;;1.57;67.42
76586;BME280;65251;51.022;13.736;2023-04-06T01:27:20;99798.38;;;1.56;67.61
76586;BME280;65251;51.022;13.736;2023-04-06T01:27:52;99794.94;;;1.56;67.50
76586;BME280;65251;51.022;13.736;2023-04-06T01:28:23;99794.22;;;1.54;67.62
76586;BME280;65251;51.022;13.736;2023-04-06T01:28:53;99794.22;;;1.54;67.69
76586;BME280;65251;51.022;13.736;2023-04-06T01:29:24;99797.94;;;1.51;67.66
76586;BME280;65251;51.022;13.736;2023-04-06T01:29:56;99793.66;;;1.50;67.62
76586;BME280;65251;51.022;13.736;2023-04-06T01:30:27;99789.38;;;1.49;67.81
76586;BME280;65251;51.022;13.736;2023-04-06T01:30:58;99792.56;;;1.53;67.88
76586;BME280;65251;51.022;13.736;2023-04-06T01:31:29;99791.16;;;1.49;67.71
76586;BME280;65251;51.022;13.736;2023-04-06T01:32:01;99796.28;;;1.50;68.02
76586;BME280;65251;51.022;13.736;2023-04-06T01:32:32;99798.09;;;1.50;67.73
76586;BME280;65251;51.022;13.736;2023-04-06T01:33:03;99792.84;;;1.50;67.71
76586;BME280;65251;51.022;13.736;2023-04-06T01:33:35;99792.84;;;1.50;67.69
76586;BME280;65251;51.022;13.736;2023-04-06T01:34:06;99800.16;;;1.46;67.93
76586;BME280;65251;51.022;13.736;2023-04-06T01:34:37;99792.13;;;1.48;68.02
76586;BME280;65251;51.022;13.736;2023-04-06T01:35:08;99794.06;;;1.46;67.90
76586;BME280;65251;51.022;13.736;2023-04-06T01:35:40;99793.09;;;1.47;68.26
76586;BME280;65251;51.022;13.736;2023-04-06T01:36:11;99790.72;;;1.44;68.06
76586;BME280;65251;51.022;13.736;2023-04-06T01:36:42;99791.69;;;1.43;68.05
76586;BME280;65251;51.022;13.736;2023-04-06T01:37:13;99792.53;;;1.43;68.15
76586;BME280;65251;51.022;13.736;2023-04-06T01:37:46;99786.75;;;1.40;68.07
76586;BME280;65251;51.022;13.736;2023-04-06T01:38:17;99785.75;;;1.41;68.26
76586;BME280;65251;51.022;13.736;2023-04-06T01:38:49;99787.53;;;1.40;68.14
76586;BME280;65251;51.022;13.736;2023-04-06T01:39:20;99785.91;;;1.39;68.05
76586;BME280;65251;51.022;13.736;2023-04-06T01:39:51;99782.44;;;1.38;68.49
76586;BME280;65251;51.022;13.736;2023-04-06T01:40:23;99785.06;;;1.38;68.08
76586;BME280;65251;51.022;13.736;2023-04-06T01:40:54;99788.78;;;1.36;68.48
76586;BME280;65251;51.022;13.736;2023-04-06T01:41:25;99787.00;;;1.36;68.55
76586;BME280;65251;51.022;13.736;2023-04-06T01:41:57;99793.34;;;1.34;68.67
76586;BME280;65251;51.022;13.736;2023-04-06T01:42:28;99795.97;;;1.34;68.49
76586;BME280;65251;51.022;13.736;2023-04-06T01:42:58;99787.53;;;1.30;68.78
76586;BME280;65251;51.022;13.736;2023-04-06T01:43:29;99792.66;;;1.32;68.67
76586;BME280;65251;51.022;13.736;2023-04-06T01:44:01;99788.50;;;1.29;68.95
76586;BME280;65251;51.022;13.736;2023-04-06T01:44:32;99796.50;;;1.28;68.81
76586;BME280;65251;51.022;13.736;2023-04-06T01:45:04;99793.16;;;1.26;68.86
76586;BME280;65251;51.022;13.736;2023-04-06T01:45:36;99785.28;;;1.26;68.86
76586;BME280;65251;51.022;13.736;2023-04-06T01:46:06;99784.47;;;1.25;68.98
76586;BME280;65251;51.022;13.736;2023-04-06T01:46:37;99788.03;;;1.24;68.94
76586;BME280;65251;51.022;13.736;2023-04-06T01:47:09;99787.34;;;1.22;69.18
76586;BME280;65251;51.022;13.736;2023-04-06T01:47:40;99789.84;;;1.24;69.08
76586;BME280;65251;51.022;13.736;2023-04-06T01:48:11;99791.88;;;1.20;69.11
76586;BME280;65251;51.022;13.736;2023-04-06T01:48:42;99785.97;;;1.18;69.07
76586;BME280;65251;51.022;13.736;2023-04-06T01:49:14;99786.81;;;1.19;69.32
76586;BME280;65251;51.022;13.736;2023-04-06T01:49:45;99788.59;;;1.18;69.47
76586;BME280;65251;51.022;13.736;2023-04-06T01:50:15;99786.94;;;1.17;69.44
76586;BME280;65251;51.022;13.736;2023-04-06T01:50:46;99784.44;;;1.16;69.58
76586;BME280;65251;51.022;13.736;2023-04-06T01:51:18;99791.47;;;1.15;69.42
76586;BME280;65251;51.022;13.736;2023-04-06T01:51:49;99790.53;;;1.16;69.54
76586;BME280;65251;51.022;13.736;2023-04-06T01:52:20;99794.94;;;1.16;69.56
76586;BME280;65251;51.022;13.736;2023-04-06T01:52:52;99788.84;;;1.15;69.64
76586;BME280;65251;51.022;13.736;2023-04-06T01:53:25;99790.66;;;1.15;69.49
76586;BME280;65251;51.022;13.736;2023-04-06T01:53:56;99787.06;;;1.16;69.57
76586;BME280;65251;51.022;13.736;2023-04-06T01:54:26;99785.53;;;1.13;69.61
76586;BME280;65251;51.022;13.736;2023-04-06T01:54:58;99790.06;;;1.11;69.57
76586;BME280;65251;51.022;13.736;2023-04-06T01:55:29;99785.09;;;1.08;69.79
76586;BME280;65251;51.022;13.736;2023-04-06T01:56:00;99791.16;;;1.09;69.95
76586;BME280;65251;51.022;13.736;2023-04-06T01:56:31;99788.66;;;1.07;69.92
76586;BME280;65251;51.022;13.736;2023-04-06T01:57:03;99792.25;;;1.06;70.06
76586;BME280;65251;51.022;13.736;2023-04-06T01:57:33;99792.25;;;1.06;70.07
76586;BME280;65251;51.022;13.736;2023-04-06T01:58:05;99791.81;;;1.01;70.31
76586;BME280;65251;51.022;13.736;2023-04-06T01:58:37;99789.19;;;1.01;70.61
76586;BME280;65251;51.022;13.736;2023-04-06T01:59:07;99785.59;;;1.02;70.55
76586;BME280;65251;51.022;13.736;2023-04-06T01:59:38;99795.41;;;1.00;70.76
76586;BME280;65251;51.022;13.736;2023-04-06T02:00:10;99797.47;;;0.96;70.88
76586;BME280;65251;51.022;13.736;2023-04-06T02:00:42;99788.78;;;0.96;70.97
76586;BME280;65251;51.022;13.736;2023-04-06T02:01:13;99785.56;;;0.92;71.11
76586;BME280;65251;51.022;13.736;2023-04-06T02:01:44;99792.63;;;0.92;71.38
76586;BME280;65251;51.022;13.736;2023-04-06T02:02:15;99780.47;;;0.91;71.32
76586;BME280;65251;51.022;13.736;2023-04-06T02:02:46;99792.75;;;0.90;71.35
76586;BME280;65251;51.022;13.736;2023-04-06T02:03:17;99790.50;;;0.86;71.60
76586;BME280;65251;51.022;13.736;2023-04-06T02:03:49;99792.03;;;0.88;71.82
76586;BME280;65251;51.022;13.736;2023-04-06T02:04:20;99793.13;;;0.86;72.00
76586;BME280;65251;51.022;13.736;2023-04-06T02:04:51;99781.66;;;0.87;71.96
76586;BME280;65251;51.022;13.736;2023-04-06T02:05:22;99793.25;;;0.84;72.05
76586;BME280;65251;51.022;13.736;2023-04-06T02:05:54;99793.25;;;0.84;72.33
76586;BME280;65251;51.022;13.736;2023-04-06T02:06:25;99788.72;;;0.86;72.33
76586;BME280;65251;51.022;13.736;2023-04-06T02:06:57;99786.34;;;0.83;72.42
76586;BME280;65251;51.022;13.736;2023-04-06T02:07:27;99787.31;;;0.82;72.54
76586;BME280;65251;51.022;13.736;2023-04-06T02:08:01;99790.06;;;0.81;72.58
76586;BME280;65251;51.022;13.736;2023-04-06T02:08:31;99792.84;;;0.79;72.82
76586;BME280;65251;51.022;13.736;2023-04-06T02:09:02;99792.00;;;0.79;72.65
76586;BME280;65251;51.022;13.736;2023-04-06T02:09:36;99790.47;;;0.76;72.77
76586;BME280;65251;51.022;13.736;2023-04-06T02:10:11;99794.16;;;0.74;72.87
76586;BME280;65251;51.022;13.736;2023-04-06T02:10:42;99783.69;;;0.74;73.05
76586;BME280;65251;51.022;13.736;2023-04-06T02:11:14;99785.59;;;0.72;72.81
76586;BME280;65251;51.022;13.736;2023-04-06T02:11:45;99788.22;;;0.72;73.12
76586;BME280;65251;51.022;13.736;2023-04-06T02:12:16;99789.31;;;0.69;73.27
76586;BME280;65251;51.022;13.736;2023-04-06T02:12:48;99780.75;;;0.67;73.35
76586;BME280;65251;51.022;13.736;2023-04-06T02:13:19;99787.66;;;0.68;73.25
76586;BME280;65251;51.022;13.736;2023-04-06T02:13:49;99785.84;;;0.68;73.30
76586;BME280;65251;51.022;13.736;2023-04-06T02:14:24;99786.94;;;0.66;73.17
76586;BME280;65251;51.022;13.736;2023-04-06T02:14:55;99783.47;;;0.65;73.26
76586;BME280;65251;51.022;13.736;2023-04-06T02:15:26;99782.53;;;0.66;73.24
76586;BME280;65251;51.022;13.736;2023-04-06T02:15:57;99787.78;;;0.66;72.97
76586;BME280;65251;51.022;13.736;2023-04-06T02:16:29;99788.72;;;0.65;72.89
76586;BME280;65251;51.022;13.736;2023-04-06T02:17:00;99787.91;;;0.65;73.31
76586;BME280;65251;51.022;13.736;2023-04-06T02:17:31;99782.53;;;0.66;72.96
76586;BME280;65251;51.022;13.736;2023-04-06T02:18:01;99780.03;;;0.65;73.07
76586;BME280;65251;51.022;13.736;2023-04-06T02:18:33;99786.34;;;0.62;73.02
76586;BME280;65251;51.022;13.736;2023-04-06T02:19:04;99782.78;;;0.63;72.66
76586;BME280;65251;51.022;13.736;2023-04-06T02:19:35;99778.50;;;0.62;72.91
76586;BME280;65251;51.022;13.736;2023-04-06T02:20:06;99780.16;;;0.63;72.72
76586;BME280;65251;51.022;13.736;2023-04-06T02:20:38;99781.00;;;0.64;72.69
76586;BME280;65251;51.022;13.736;2023-04-06T02:21:09;99785.28;;;0.65;72.62
76586;BME280;65251;51.022;13.736;2023-04-06T02:21:40;99779.06;;;0.66;72.51
76586;BME280;65251;51.022;13.736;2023-04-06T02:22:12;99774.78;;;0.65;72.27
76586;BME280;65251;51.022;13.736;2023-04-06T02:22:43;99783.34;;;0.67;72.29
76586;BME280;65251;51.022;13.736;2023-04-06T02:23:15;99772.88;;;0.67;72.24
76586;BME280;65251;51.022;13.736;2023-04-06T02:23:47;99775.50;;;0.67;72.24
76586;BME280;65251;51.022;13.736;2023-04-06T02:24:18;99779.91;;;0.66;72.10
76586;BME280;65251;51.022;13.736;2023-04-06T02:24:49;99779.91;;;0.66;72.46
76586;BME280;65251;51.022;13.736;2023-04-06T02:25:20;99778.13;;;0.67;72.49
76586;BME280;65251;51.022;13.736;2023-04-06T02:25:51;99774.53;;;0.68;72.21
76586;BME280;65251;51.022;13.736;2023-04-06T02:26:22;99784.19;;;0.67;72.44
76586;BME280;65251;51.022;13.736;2023-04-06T02:26:53;99779.91;;;0.66;72.85
76586;BME280;65251;51.022;13.736;2023-04-06T02:27:24;99773.00;;;0.65;72.33
76586;BME280;65251;51.022;13.736;2023-04-06T02:27:56;99777.28;;;0.66;72.45
76586;BME280;65251;51.022;13.736;2023-04-06T02:28:26;99776.31;;;0.67;72.37
76586;BME280;65251;51.022;13.736;2023-04-06T02:28:57;99772.88;;;0.67;72.58
76586;BME280;65251;51.022;13.736;2023-04-06T02:29:29;99775.63;;;0.65;72.50
76586;BME280;65251;51.022;13.736;2023-04-06T02:30:00;99773.13;;;0.64;72.90
76586;BME280;65251;51.022;13.736;2023-04-06T02:30:31;99770.50;;;0.64;72.89
76586;BME280;65251;51.022;13.736;2023-04-06T02:31:03;99771.75;;;0.60;72.88
76586;BME280;65251;51.022;13.736;2023-04-06T02:31:33;99770.91;;;0.59;73.06
76586;BME280;65251;51.022;13.736;2023-04-06T02:32:04;99773.66;;;0.58;72.98
76586;BME280;65251;51.022;13.736;2023-04-06T02:32:36;99773.66;;;0.58;72.94
76586;BME280;65251;51.022;13.736;2023-04-06T02:33:07;99771.16;;;0.56;73.00
76586;BME280;65251;51.022;13.736;2023-04-06T02:33:38;99770.47;;;0.54;72.99
76586;BME280;65251;51.022;13.736;2023-04-06T02:34:09;99769.38;;;0.57;72.81
76586;BME280;65251;51.022;13.736;2023-04-06T02:34:42;99776.41;;;0.56;72.88
76586;BME280;65251;51.022;13.736;2023-04-06T02:35:13;99772.00;;;0.57;72.90
76586;BME280;65251;51.022;13.736;2023-04-06T02:35:45;99777.13;;;0.58;72.82
76586;BME280;65251;51.022;13.736;2023-04-06T02:36:16;99764.13;;;0.57;72.79
76586;BME280;65251;51.022;13.736;2023-04-06T02:36:47;99770.22;;;0.57;72.76
76586;BME280;65251;51.022;13.736;2023-04-06T02:37:18;99771.03;;;0.58;72.63
76586;BME280;65251;51.022;13.736;2023-04-06T02:37:49;99770.91;;;0.59;72.45
76586;BME280;65251;51.022;13.736;2023-04-06T02:38:22;99768.28;;;0.59;72.53
76586;BME280;65251;51.022;13.736;2023-04-06T02:38:52;99770.75;;;0.61;72.47
76586;BME280;65251;51.022;13.736;2023-04-06T02:39:24;99769.78;;;0.62;72.37
76586;BME280;65251;51.022;13.736;2023-04-06T02:39:55;99768.13;;;0.61;72.33
76586;BME280;65251;51.022;13.736;2023-04-06T02:40:26;99760.84;;;0.64;72.25
76586;BME280;65251;51.022;13.736;2023-04-06T02:40:57;99769.78;;;0.62;71.93
76586;BME280;65251;51.022;13.736;2023-04-06T02:41:28;99762.06;;;0.60;72.16
76586;BME280;65251;51.022;13.736;2023-04-06T02:41:59;99767.47;;;0.59;71.92
76586;BME280;65251;51.022;13.736;2023-04-06T02:42:30;99772.69;;;0.59;72.12
76586;BME280;65251;51.022;13.736;2023-04-06T02:43:02;99772.81;;;0.57;71.94
76586;BME280;65251;51.022;13.736;2023-04-06T02:43:33;99772.69;;;0.59;71.90
76586;BME280;65251;51.022;13.736;2023-04-06T02:44:06;99770.22;;;0.57;71.83
76586;BME280;65251;51.022;13.736;2023-04-06T02:44:38;99769.50;;;0.55;71.84
76586;BME280;65251;51.022;13.736;2023-04-06T02:45:09;99769.38;;;0.57;71.69
76586;BME280;65251;51.022;13.736;2023-04-06T02:45:40;99768.41;;;0.58;71.47
76586;BME280;65251;51.022;13.736;2023-04-06T02:46:11;99765.78;;;0.58;71.75